• Join FlightAware (Why Join?)
  • Login
  • US Flag 
09:49AM EST


 

Airport Tracker/Info


-or-


 

Live Flight TrackerFlight Track Log ✈ EGF4039 ✈ 09-Apr-2013 ✈ KALO - KORD

Flight Track Log - Related Links

Times and Time Zones

All times are in EDT time to prevent confusion due to time zone crossing. See the EGF4039 flight status page for this flight to view local times or setup timezone preferences in your user account.

Time Position Orientation Groundspeed Altitude Reporting Facility
EDT Latitude Longitude Course Direction KTS MPH feet Rate Location/Type
06:08PM 42.5125 -92.3342 97° East 211 243 3,800  Level Chicago Center
06:09PM 42.4431 -92.2775 149° Southeast 230 265 7,900 3,290 Climbing Chicago Center
06:10PM 42.3803 -92.2206 146° Southeast 250 288 10,600 2,226 Climbing Chicago Center
06:11PM 42.3114 -92.1575 146° Southeast 282 325 12,500 1,790 Climbing Chicago Center
06:12PM 42.4982 -91.8469 97° East  Level FlightAware Approximate
06:12PM 42.2303 -92.0875 147° Southeast 341 392 14,300  Level Chicago Center
06:13PM 42.4870 -91.7237 97° East  Level FlightAware Approximate
06:13PM 42.1297 -91.9989 147° Southeast 362 417 16,600  Level Chicago Center
06:14PM 42.0436 -91.9225 147° Southeast 374 430 18,700 1,161 Climbing Chicago Center
06:15PM 41.9511 -91.8411 147° Southeast 399 459 19,000 145 Climbing Chicago Center
06:16PM 41.8694 -91.7283 134° Southeast 436 502 19,000  Level Chicago Center
06:17PM 41.8219 -91.5806 113° Southeast 438 504 19,000  Level Chicago Center
06:18PM 41.7650 -91.4003 113° Southeast 442 509 19,000  Level Chicago Center
06:19PM 41.7186 -91.2592 114° Southeast 429 494 19,000  Level Chicago Center
06:20PM 41.6722 -91.1142 113° Southeast 428 493 19,000  Level Chicago Center
06:21PM 41.6242 -90.9686 114° Southeast 431 496 19,000  Level Chicago Center
06:22PM 41.5664 -90.7925 114° Southeast 436 502 19,000  Level Chicago Center
06:23PM 41.5258 -90.6672 113° Southeast 437 503 19,000  Level Chicago Center
06:24PM 41.4661 -90.4928 115° Southeast 432 497 19,000  Level Chicago Center
06:25PM 41.4169 -90.3439 114° Southeast 436 502 19,000  Level Chicago Center
06:26PM 41.3683 -90.1978 114° Southeast 432 497 19,000  Level Chicago Center
06:27PM 41.3183 -90.0500 114° Southeast 436 502 19,000  Level Chicago Center
06:28PM 41.2889 -89.8967 104° East 438 504 19,000 -240 Level Chicago Center
06:29PM 41.3186 -89.7356 76° East 447 514 18,500 -1,258 Descending Chicago Center
06:30PM 41.3483 -89.5786 76° East 439 505 16,400 -2,177 Descending Chicago Center
06:31PM 41.3831 -89.3989 76° East 420 483 14,000 -2,129 Descending Chicago Center
06:32PM 41.4108 -89.2542 76° East 405 466 12,000 -1,500 Descending Chicago Center
06:33PM 41.4347 -89.1119 77° East 393 452 10,900 -532 Descending Chicago Center
06:34PM 41.4622 -88.9758 75° East 384 442 10,900 97 Level Chicago Center
06:36PM 41.4861 -88.8372 77° East 385 443 11,100 48 Climbing Chicago Center
06:37PM 41.5131 -88.6992 75° East 387 445 11,000 -48 Descending Chicago Center
06:38PM 41.5550 -88.5681 67° East 330 380 11,000 -290 Level Chicago Center
06:39PM 41.5597 -88.4503 87° East 319 367 10,400 -1,161 Descending Chicago Center
06:40PM 41.5681 -88.3403 84° East 300 345 8,600 -1,161 Descending Chicago Center
06:41PM 41.6331 -88.2794 35° Northeast 281 323 8,000 -823 Descending Chicago Center
06:42PM 41.6925 -88.2056 43° Northeast 289 333 6,900 -1,258 Descending Chicago Center
06:43PM 41.7525 -88.1342 42° Northeast 289 333 5,400 -1,403 Descending Chicago Center
06:44PM 41.8219 -88.0539 41° Northeast 283 326 4,000 -1,161 Descending Chicago Center
06:45PM 41.8669 -88.0022 41° Northeast 241 277 3,000 -1,032 Descending Chicago Center
06:45PM 41.8833 -87.9667 58° Northeast 201 231 2,400 -923 Descending Chicago TRACON
06:46PM 41.9167 -87.9333 37° Northeast 125 144 1,600 -714 Descending Chicago TRACON
06:47PM 41.9500 -87.9000 37° Northeast 114 131 900 -636 Descending Chicago TRACON